Crescent, Oklahoma
Current Conditions -  °F | °C
As of 12:53 PM on Tuesday 27 Jan 2015 (Local Time) from KGOK Reporting Station
Clear Clear  
Wind Chill: 72°   Ceiling: Unl
Heat Index: 72°   Visibility: 10mi
Dew Point: 35°   Wind: 12mph
Humidity: 26%   Direction: 230°SW
Pressure: 30.12"   Gusts: NA
Location:  35.95°N, 97.59°W
Report Text: KGOK 271853Z AUTO 23010KT 10SM CLR 22/02 A3012 RMK AO2 SLP198 T02220017
Loading
Personal Weather Stations






























Interactive Weather Map New forecast layout! Learn more

10-Day Weather Forecast

Advertisements
Track Severe Weather on mobile